sensor_id;sensor_type;location;lat;lon;timestamp;P1;durP1;ratioP1;P2;durP2;ratioP2
78618;SDS011;67941;52.506;5.470;2023-04-24T00:01:14;0.70;;;0.20;;
78618;SDS011;67941;52.506;5.470;2023-04-24T00:03:44;0.50;;;0.20;;
78618;SDS011;67941;52.506;5.470;2023-04-24T00:06:13;1.15;;;0.80;;
78618;SDS011;67941;52.506;5.470;2023-04-24T00:08:42;0.57;;;0.43;;
78618;SDS011;67941;52.506;5.470;2023-04-24T00:11:11;0.80;;;0.40;;
78618;SDS011;67941;52.506;5.470;2023-04-24T00:13:40;0.80;;;0.20;;
78618;SDS011;67941;52.506;5.470;2023-04-24T00:16:09;0.60;;;0.20;;
78618;SDS011;67941;52.506;5.470;2023-04-24T00:18:40;1.92;;;0.20;;
78618;SDS011;67941;52.506;5.470;2023-04-24T00:21:10;1.00;;;0.20;;
78618;SDS011;67941;52.506;5.470;2023-04-24T00:23:39;0.45;;;0.15;;
78618;SDS011;67941;52.506;5.470;2023-04-24T00:26:08;0.63;;;0.32;;
78618;SDS011;67941;52.506;5.470;2023-04-24T00:28:36;0.47;;;0.10;;
78618;SDS011;67941;52.506;5.470;2023-04-24T00:31:05;0.70;;;0.32;;
78618;SDS011;67941;52.506;5.470;2023-04-24T00:33:34;1.08;;;0.20;;
78618;SDS011;67941;52.506;5.470;2023-04-24T00:36:06;0.55;;;0.30;;
78618;SDS011;67941;52.506;5.470;2023-04-24T00:38:35;1.33;;;0.43;;
78618;SDS011;67941;52.506;5.470;2023-04-24T00:41:04;1.33;;;0.40;;
78618;SDS011;67941;52.506;5.470;2023-04-24T00:43:33;0.77;;;0.32;;
78618;SDS011;67941;52.506;5.470;2023-04-24T00:46:02;1.50;;;0.45;;
78618;SDS011;67941;52.506;5.470;2023-04-24T00:48:31;0.98;;;0.30;;
78618;SDS011;67941;52.506;5.470;2023-04-24T00:51:00;1.20;;;0.43;;
78618;SDS011;67941;52.506;5.470;2023-04-24T00:53:50;1.05;;;0.80;;
78618;SDS011;67941;52.506;5.470;2023-04-24T00:56:19;2.20;;;0.50;;
78618;SDS011;67941;52.506;5.470;2023-04-24T00:58:48;1.77;;;0.40;;
78618;SDS011;67941;52.506;5.470;2023-04-24T01:01:18;1.83;;;0.50;;
78618;SDS011;67941;52.506;5.470;2023-04-24T01:03:50;1.88;;;0.60;;
78618;SDS011;67941;52.506;5.470;2023-04-24T01:06:21;2.15;;;0.60;;
78618;SDS011;67941;52.506;5.470;2023-04-24T01:08:54;1.88;;;0.80;;
78618;SDS011;67941;52.506;5.470;2023-04-24T01:11:24;1.92;;;0.60;;
78618;SDS011;67941;52.506;5.470;2023-04-24T01:13:53;2.03;;;0.73;;
78618;SDS011;67941;52.506;5.470;2023-04-24T01:16:22;2.60;;;0.70;;
78618;SDS011;67941;52.506;5.470;2023-04-24T01:18:53;2.30;;;0.70;;
78618;SDS011;67941;52.506;5.470;2023-04-24T01:21:21;2.08;;;0.57;;
78618;SDS011;67941;52.506;5.470;2023-04-24T01:23:58;2.53;;;0.95;;
78618;SDS011;67941;52.506;5.470;2023-04-24T01:26:27;0.93;;;0.35;;
78618;SDS011;67941;52.506;5.470;2023-04-24T01:28:56;1.92;;;0.70;;
78618;SDS011;67941;52.506;5.470;2023-04-24T01:31:25;2.58;;;0.70;;
78618;SDS011;67941;52.506;5.470;2023-04-24T01:33:54;1.67;;;0.68;;
78618;SDS011;67941;52.506;5.470;2023-04-24T01:36:25;2.92;;;0.60;;
78618;SDS011;67941;52.506;5.470;2023-04-24T01:38:59;2.92;;;0.32;;
78618;SDS011;67941;52.506;5.470;2023-04-24T01:41:28;1.10;;;0.40;;
78618;SDS011;67941;52.506;5.470;2023-04-24T01:43:58;1.25;;;0.52;;
78618;SDS011;67941;52.506;5.470;2023-04-24T01:46:27;1.23;;;0.50;;
78618;SDS011;67941;52.506;5.470;2023-04-24T01:48:56;0.60;;;0.30;;
78618;SDS011;67941;52.506;5.470;2023-04-24T01:51:27;0.75;;;0.28;;
78618;SDS011;67941;52.506;5.470;2023-04-24T01:53:59;0.95;;;0.30;;
78618;SDS011;67941;52.506;5.470;2023-04-24T01:56:28;0.30;;;0.13;;
78618;SDS011;67941;52.506;5.470;2023-04-24T01:58:57;0.30;;;0.10;;
78618;SDS011;67941;52.506;5.470;2023-04-24T02:01:29;1.42;;;0.10;;
78618;SDS011;67941;52.506;5.470;2023-04-24T02:04:02;0.22;;;0.22;;
78618;SDS011;67941;52.506;5.470;2023-04-24T02:06:31;0.40;;;0.10;;
78618;SDS011;67941;52.506;5.470;2023-04-24T02:09:03;0.10;;;0.10;;
78618;SDS011;67941;52.506;5.470;2023-04-24T02:11:32;1.13;;;0.10;;
78618;SDS011;67941;52.506;5.470;2023-04-24T02:14:01;0.20;;;0.10;;
78618;SDS011;67941;52.506;5.470;2023-04-24T02:16:30;0.30;;;0.30;;
78618;SDS011;67941;52.506;5.470;2023-04-24T02:19:01;0.40;;;0.10;;
78618;SDS011;67941;52.506;5.470;2023-04-24T02:21:30;0.30;;;0.20;;
78618;SDS011;67941;52.506;5.470;2023-04-24T02:23:58;1.02;;;0.35;;
78618;SDS011;67941;52.506;5.470;2023-04-24T02:26:30;0.40;;;0.20;;
78618;SDS011;67941;52.506;5.470;2023-04-24T02:28:59;0.90;;;0.60;;
78618;SDS011;67941;52.506;5.470;2023-04-24T02:31:27;0.68;;;0.10;;
78618;SDS011;67941;52.506;5.470;2023-04-24T02:33:56;0.22;;;0.10;;
78618;SDS011;67941;52.506;5.470;2023-04-24T02:36:25;1.20;;;0.20;;
78618;SDS011;67941;52.506;5.470;2023-04-24T02:38:54;0.40;;;0.30;;
78618;SDS011;67941;52.506;5.470;2023-04-24T02:41:23;0.20;;;0.10;;
78618;SDS011;67941;52.506;5.470;2023-04-24T02:43:59;0.57;;;0.10;;
78618;SDS011;67941;52.506;5.470;2023-04-24T02:46:28;0.30;;;0.10;;
78618;SDS011;67941;52.506;5.470;2023-04-24T02:48:57;0.35;;;0.05;;
78618;SDS011;67941;52.506;5.470;2023-04-24T02:51:26;0.22;;;0.10;;
78618;SDS011;67941;52.506;5.470;2023-04-24T02:53:55;0.10;;;0.10;;
78618;SDS011;67941;52.506;5.470;2023-04-24T02:56:24;0.50;;;0.50;;
78618;SDS011;67941;52.506;5.470;2023-04-24T02:58:53;0.52;;;0.10;;
78618;SDS011;67941;52.506;5.470;2023-04-24T03:01:25;0.60;;;0.10;;
78618;SDS011;67941;52.506;5.470;2023-04-24T03:03:54;0.77;;;0.43;;
78618;SDS011;67941;52.506;5.470;2023-04-24T03:06:23;0.10;;;0.10;;
78618;SDS011;67941;52.506;5.470;2023-04-24T03:08:52;0.15;;;0.00;;
78618;SDS011;67941;52.506;5.470;2023-04-24T03:11:21;0.63;;;0.10;;
78618;SDS011;67941;52.506;5.470;2023-04-24T03:13:50;0.65;;;0.15;;
78618;SDS011;67941;52.506;5.470;2023-04-24T03:16:19;0.98;;;0.00;;
78618;SDS011;67941;52.506;5.470;2023-04-24T03:18:51;0.10;;;0.10;;
78618;SDS011;67941;52.506;5.470;2023-04-24T03:21:20;0.00;;;0.00;;
78618;SDS011;67941;52.506;5.470;2023-04-24T03:23:50;0.35;;;0.20;;
78618;SDS011;67941;52.506;5.470;2023-04-24T03:26:19;0.93;;;0.20;;
78618;SDS011;67941;52.506;5.470;2023-04-24T03:29:02;0.40;;;0.10;;
78618;SDS011;67941;52.506;5.470;2023-04-24T03:31:31;0.98;;;0.40;;
78618;SDS011;67941;52.506;5.470;2023-04-24T03:34:02;0.40;;;0.10;;
78618;SDS011;67941;52.506;5.470;2023-04-24T03:36:32;1.17;;;0.28;;
78618;SDS011;67941;52.506;5.470;2023-04-24T03:39:01;0.75;;;0.22;;
78618;SDS011;67941;52.506;5.470;2023-04-24T03:41:33;0.47;;;0.20;;
78618;SDS011;67941;52.506;5.470;2023-04-24T03:44:18;0.60;;;0.25;;
78618;SDS011;67941;52.506;5.470;2023-04-24T03:46:47;0.30;;;0.17;;
78618;SDS011;67941;52.506;5.470;2023-04-24T03:49:21;0.73;;;0.20;;
78618;SDS011;67941;52.506;5.470;2023-04-24T03:51:50;0.10;;;0.10;;
78618;SDS011;67941;52.506;5.470;2023-04-24T03:54:22;0.30;;;0.10;;
78618;SDS011;67941;52.506;5.470;2023-04-24T03:56:52;0.20;;;0.10;;
78618;SDS011;67941;52.506;5.470;2023-04-24T03:59:22;0.52;;;0.20;;
78618;SDS011;67941;52.506;5.470;2023-04-24T04:02:06;0.10;;;0.00;;
78618;SDS011;67941;52.506;5.470;2023-04-24T04:04:38;0.20;;;0.20;;
78618;SDS011;67941;52.506;5.470;2023-04-24T04:07:07;0.10;;;0.03;;
78618;SDS011;67941;52.506;5.470;2023-04-24T04:09:36;0.88;;;0.10;;
78618;SDS011;67941;52.506;5.470;2023-04-24T04:12:05;0.30;;;0.10;;
78618;SDS011;67941;52.506;5.470;2023-04-24T04:14:36;0.70;;;0.63;;
78618;SDS011;67941;52.506;5.470;2023-04-24T04:17:05;0.40;;;0.20;;
78618;SDS011;67941;52.506;5.470;2023-04-24T04:19:34;0.10;;;0.03;;
78618;SDS011;67941;52.506;5.470;2023-04-24T04:22:05;0.20;;;0.03;;
78618;SDS011;67941;52.506;5.470;2023-04-24T04:24:40;0.20;;;0.10;;
78618;SDS011;67941;52.506;5.470;2023-04-24T04:27:10;0.45;;;0.15;;
78618;SDS011;67941;52.506;5.470;2023-04-24T04:29:48;0.50;;;0.10;;
78618;SDS011;67941;52.506;5.470;2023-04-24T04:32:19;0.68;;;0.28;;
78618;SDS011;67941;52.506;5.470;2023-04-24T04:34:48;0.52;;;0.25;;
78618;SDS011;67941;52.506;5.470;2023-04-24T04:37:22;0.75;;;0.10;;
78618;SDS011;67941;52.506;5.470;2023-04-24T04:40:07;0.25;;;0.25;;
78618;SDS011;67941;52.506;5.470;2023-04-24T04:42:45;0.10;;;0.10;;
78618;SDS011;67941;52.506;5.470;2023-04-24T04:45:14;1.58;;;0.40;;
78618;SDS011;67941;52.506;5.470;2023-04-24T04:48:20;0.82;;;0.20;;
78618;SDS011;67941;52.506;5.470;2023-04-24T04:50:50;0.40;;;0.20;;
78618;SDS011;67941;52.506;5.470;2023-04-24T04:53:23;0.55;;;0.28;;
78618;SDS011;67941;52.506;5.470;2023-04-24T04:55:52;2.33;;;0.52;;
78618;SDS011;67941;52.506;5.470;2023-04-24T04:58:26;0.28;;;0.25;;
78618;SDS011;67941;52.506;5.470;2023-04-24T05:00:58;0.10;;;0.10;;
78618;SDS011;67941;52.506;5.470;2023-04-24T05:03:36;0.03;;;0.00;;
78618;SDS011;67941;52.506;5.470;2023-04-24T05:06:08;0.25;;;0.10;;
78618;SDS011;67941;52.506;5.470;2023-04-24T05:08:41;0.30;;;0.20;;
78618;SDS011;67941;52.506;5.470;2023-04-24T05:11:20;0.77;;;0.30;;
78618;SDS011;67941;52.506;5.470;2023-04-24T05:13:50;0.65;;;0.28;;
78618;SDS011;67941;52.506;5.470;2023-04-24T05:16:27;1.08;;;0.20;;
78618;SDS011;67941;52.506;5.470;2023-04-24T05:18:56;0.55;;;0.20;;
78618;SDS011;67941;52.506;5.470;2023-04-24T05:21:30;0.88;;;0.22;;
78618;SDS011;67941;52.506;5.470;2023-04-24T05:24:02;0.88;;;0.20;;
78618;SDS011;67941;52.506;5.470;2023-04-24T05:26:52;1.85;;;0.20;;
78618;SDS011;67941;52.506;5.470;2023-04-24T05:29:25;2.90;;;0.63;;
78618;SDS011;67941;52.506;5.470;2023-04-24T05:31:56;0.80;;;0.25;;
78618;SDS011;67941;52.506;5.470;2023-04-24T05:34:26;0.95;;;0.30;;
78618;SDS011;67941;52.506;5.470;2023-04-24T05:36:56;1.30;;;0.28;;
78618;SDS011;67941;52.506;5.470;2023-04-24T05:39:28;0.90;;;0.30;;
78618;SDS011;67941;52.506;5.470;2023-04-24T05:41:58;0.93;;;0.50;;
78618;SDS011;67941;52.506;5.470;2023-04-24T05:44:28;1.48;;;0.80;;
78618;SDS011;67941;52.506;5.470;2023-04-24T05:46:58;0.90;;;0.28;;
78618;SDS011;67941;52.506;5.470;2023-04-24T05:49:28;1.30;;;0.20;;
78618;SDS011;67941;52.506;5.470;2023-04-24T05:51:56;0.90;;;0.30;;
78618;SDS011;67941;52.506;5.470;2023-04-24T05:54:28;0.82;;;0.13;;
78618;SDS011;67941;52.506;5.470;2023-04-24T05:56:57;0.30;;;0.13;;
78618;SDS011;67941;52.506;5.470;2023-04-24T05:59:40;0.80;;;0.10;;
78618;SDS011;67941;52.506;5.470;2023-04-24T06:02:10;0.20;;;0.10;;
78618;SDS011;67941;52.506;5.470;2023-04-24T06:04:39;1.80;;;0.43;;
78618;SDS011;67941;52.506;5.470;2023-04-24T06:07:07;1.58;;;0.32;;
78618;SDS011;67941;52.506;5.470;2023-04-24T06:09:43;1.83;;;0.30;;
78618;SDS011;67941;52.506;5.470;2023-04-24T06:12:12;0.70;;;0.28;;
78618;SDS011;67941;52.506;5.470;2023-04-24T06:15:02;1.52;;;0.22;;
78618;SDS011;67941;52.506;5.470;2023-04-24T06:17:50;3.35;;;1.02;;
78618;SDS011;67941;52.506;5.470;2023-04-24T06:20:20;4.63;;;1.13;;
78618;SDS011;67941;52.506;5.470;2023-04-24T06:22:49;9.70;;;2.83;;
78618;SDS011;67941;52.506;5.470;2023-04-24T06:25:20;8.48;;;3.00;;
78618;SDS011;67941;52.506;5.470;2023-04-24T06:27:50;13.57;;;4.32;;
78618;SDS011;67941;52.506;5.470;2023-04-24T06:30:19;11.88;;;4.68;;
78618;SDS011;67941;52.506;5.470;2023-04-24T06:32:50;9.05;;;2.70;;
78618;SDS011;67941;52.506;5.470;2023-04-24T06:35:19;9.30;;;3.78;;
78618;SDS011;67941;52.506;5.470;2023-04-24T06:37:48;11.77;;;3.28;;
78618;SDS011;67941;52.506;5.470;2023-04-24T06:40:20;6.97;;;2.53;;
78618;SDS011;67941;52.506;5.470;2023-04-24T06:42:49;7.90;;;3.88;;
78618;SDS011;67941;52.506;5.470;2023-04-24T06:45:18;8.98;;;2.13;;
78618;SDS011;67941;52.506;5.470;2023-04-24T06:47:47;6.57;;;2.20;;
78618;SDS011;67941;52.506;5.470;2023-04-24T06:50:16;8.63;;;2.80;;
78618;SDS011;67941;52.506;5.470;2023-04-24T06:52:45;10.80;;;2.65;;
78618;SDS011;67941;52.506;5.470;2023-04-24T06:55:14;5.55;;;1.77;;
78618;SDS011;67941;52.506;5.470;2023-04-24T06:57:46;8.85;;;3.30;;
78618;SDS011;67941;52.506;5.470;2023-04-24T07:00:15;6.80;;;1.85;;
78618;SDS011;67941;52.506;5.470;2023-04-24T07:02:44;8.57;;;3.63;;
78618;SDS011;67941;52.506;5.470;2023-04-24T07:05:13;11.98;;;4.15;;
78618;SDS011;67941;52.506;5.470;2023-04-24T07:07:45;10.77;;;3.67;;
78618;SDS011;67941;52.506;5.470;2023-04-24T07:10:15;10.05;;;2.78;;
78618;SDS011;67941;52.506;5.470;2023-04-24T07:12:48;12.68;;;4.13;;
78618;SDS011;67941;52.506;5.470;2023-04-24T07:15:16;7.45;;;2.92;;
78618;SDS011;67941;52.506;5.470;2023-04-24T07:17:45;5.78;;;2.75;;
78618;SDS011;67941;52.506;5.470;2023-04-24T07:20:14;6.18;;;2.97;;
78618;SDS011;67941;52.506;5.470;2023-04-24T07:22:43;6.95;;;2.40;;
78618;SDS011;67941;52.506;5.470;2023-04-24T07:25:13;7.68;;;3.20;;
78618;SDS011;67941;52.506;5.470;2023-04-24T07:27:42;9.15;;;2.67;;
78618;SDS011;67941;52.506;5.470;2023-04-24T07:30:14;7.93;;;2.65;;
78618;SDS011;67941;52.506;5.470;2023-04-24T07:32:43;4.90;;;1.60;;
78618;SDS011;67941;52.506;5.470;2023-04-24T07:35:11;4.63;;;2.42;;
78618;SDS011;67941;52.506;5.470;2023-04-24T07:37:40;6.70;;;2.60;;
78618;SDS011;67941;52.506;5.470;2023-04-24T07:40:11;5.93;;;1.73;;
78618;SDS011;67941;52.506;5.470;2023-04-24T07:42:40;6.95;;;2.10;;
78618;SDS011;67941;52.506;5.470;2023-04-24T07:45:09;3.58;;;1.35;;
78618;SDS011;67941;52.506;5.470;2023-04-24T07:47:41;4.18;;;1.85;;
78618;SDS011;67941;52.506;5.470;2023-04-24T07:50:10;4.32;;;1.75;;
78618;SDS011;67941;52.506;5.470;2023-04-24T07:52:40;7.57;;;2.35;;
78618;SDS011;67941;52.506;5.470;2023-04-24T07:55:08;6.82;;;1.92;;
78618;SDS011;67941;52.506;5.470;2023-04-24T07:57:37;7.80;;;2.53;;
78618;SDS011;67941;52.506;5.470;2023-04-24T08:00:07;5.55;;;1.15;;
78618;SDS011;67941;52.506;5.470;2023-04-24T08:05:26;9.90;;;2.05;;
78618;SDS011;67941;52.506;5.470;2023-04-24T08:07:55;2.88;;;1.23;;
78618;SDS011;67941;52.506;5.470;2023-04-24T08:10:24;3.20;;;1.30;;
78618;SDS011;67941;52.506;5.470;2023-04-24T08:12:53;3.03;;;1.25;;
78618;SDS011;67941;52.506;5.470;2023-04-24T08:15:23;4.68;;;1.85;;
78618;SDS011;67941;52.506;5.470;2023-04-24T08:17:51;3.97;;;1.27;;
78618;SDS011;67941;52.506;5.470;2023-04-24T08:20:23;5.45;;;2.08;;
78618;SDS011;67941;52.506;5.470;2023-04-24T08:22:52;7.00;;;2.35;;
78618;SDS011;67941;52.506;5.470;2023-04-24T08:25:21;9.13;;;1.77;;
78618;SDS011;67941;52.506;5.470;2023-04-24T08:27:51;10.18;;;2.47;;
78618;SDS011;67941;52.506;5.470;2023-04-24T08:30:19;7.93;;;2.20;;
78618;SDS011;67941;52.506;5.470;2023-04-24T08:32:48;9.25;;;2.38;;
78618;SDS011;67941;52.506;5.470;2023-04-24T08:35:17;5.47;;;1.23;;
78618;SDS011;67941;52.506;5.470;2023-04-24T08:37:49;3.78;;;1.10;;
78618;SDS011;67941;52.506;5.470;2023-04-24T08:40:18;5.53;;;1.85;;
78618;SDS011;67941;52.506;5.470;2023-04-24T08:42:53;7.82;;;1.48;;
78618;SDS011;67941;52.506;5.470;2023-04-24T08:45:23;6.93;;;1.95;;
78618;SDS011;67941;52.506;5.470;2023-04-24T08:47:52;4.45;;;1.27;;
78618;SDS011;67941;52.506;5.470;2023-04-24T08:50:22;7.38;;;1.60;;
78618;SDS011;67941;52.506;5.470;2023-04-24T08:52:54;4.43;;;1.10;;
78618;SDS011;67941;52.506;5.470;2023-04-24T08:55:23;3.45;;;0.70;;
78618;SDS011;67941;52.506;5.470;2023-04-24T08:57:52;3.55;;;1.00;;
78618;SDS011;67941;52.506;5.470;2023-04-24T09:00:21;5.22;;;1.13;;
78618;SDS011;67941;52.506;5.470;2023-04-24T09:02:51;3.17;;;1.00;;
78618;SDS011;67941;52.506;5.470;2023-04-24T09:05:22;3.30;;;0.80;;
78618;SDS011;67941;52.506;5.470;2023-04-24T09:07:55;10.52;;;1.50;;
78618;SDS011;67941;52.506;5.470;2023-04-24T09:10:43;4.40;;;1.55;;
78618;SDS011;67941;52.506;5.470;2023-04-24T09:13:13;6.60;;;0.93;;
78618;SDS011;67941;52.506;5.470;2023-04-24T09:15:42;7.28;;;1.15;;
78618;SDS011;67941;52.506;5.470;2023-04-24T09:18:11;5.35;;;1.25;;
78618;SDS011;67941;52.506;5.470;2023-04-24T09:23:31;3.30;;;0.80;;
78618;SDS011;67941;52.506;5.470;2023-04-24T09:26:00;5.03;;;1.20;;
78618;SDS011;67941;52.506;5.470;2023-04-24T09:28:31;3.53;;;0.65;;
78618;SDS011;67941;52.506;5.470;2023-04-24T09:31:04;4.45;;;0.70;;
78618;SDS011;67941;52.506;5.470;2023-04-24T09:33:35;1.98;;;0.55;;
78618;SDS011;67941;52.506;5.470;2023-04-24T09:36:04;8.93;;;0.80;;
78618;SDS011;67941;52.506;5.470;2023-04-24T09:38:37;1.75;;;0.60;;
78618;SDS011;67941;52.506;5.470;2023-04-24T09:41:07;6.88;;;0.85;;
78618;SDS011;67941;52.506;5.470;2023-04-24T09:43:41;5.07;;;0.82;;
78618;SDS011;67941;52.506;5.470;2023-04-24T09:46:10;6.90;;;1.20;;
78618;SDS011;67941;52.506;5.470;2023-04-24T09:48:39;3.25;;;0.80;;
78618;SDS011;67941;52.506;5.470;2023-04-24T09:51:08;3.42;;;0.70;;
78618;SDS011;67941;52.506;5.470;2023-04-24T09:53:39;3.83;;;0.88;;
78618;SDS011;67941;52.506;5.470;2023-04-24T09:56:17;2.60;;;0.65;;
78618;SDS011;67941;52.506;5.470;2023-04-24T09:58:46;3.22;;;1.25;;
78618;SDS011;67941;52.506;5.470;2023-04-24T10:01:15;1.92;;;0.60;;
78618;SDS011;67941;52.506;5.470;2023-04-24T10:03:44;1.17;;;0.30;;
78618;SDS011;67941;52.506;5.470;2023-04-24T10:06:14;5.05;;;0.60;;
78618;SDS011;67941;52.506;5.470;2023-04-24T10:08:45;2.13;;;0.63;;
78618;SDS011;67941;52.506;5.470;2023-04-24T10:11:16;6.20;;;0.85;;
78618;SDS011;67941;52.506;5.470;2023-04-24T10:13:45;3.20;;;0.77;;
78618;SDS011;67941;52.506;5.470;2023-04-24T10:16:14;0.70;;;0.20;;
78618;SDS011;67941;52.506;5.470;2023-04-24T10:18:43;3.00;;;0.75;;
78618;SDS011;67941;52.506;5.470;2023-04-24T10:21:12;1.60;;;0.50;;
78618;SDS011;67941;52.506;5.470;2023-04-24T10:23:45;1.73;;;0.32;;
78618;SDS011;67941;52.506;5.470;2023-04-24T10:26:14;2.35;;;0.32;;
78618;SDS011;67941;52.506;5.470;2023-04-24T10:28:45;1.98;;;0.50;;
78618;SDS011;67941;52.506;5.470;2023-04-24T10:31:14;1.30;;;0.45;;
78618;SDS011;67941;52.506;5.470;2023-04-24T10:33:43;1.85;;;0.28;;
78618;SDS011;67941;52.506;5.470;2023-04-24T10:36:14;3.35;;;0.40;;
78618;SDS011;67941;52.506;5.470;2023-04-24T10:38:46;1.88;;;0.40;;
78618;SDS011;67941;52.506;5.470;2023-04-24T10:41:16;4.30;;;0.55;;
78618;SDS011;67941;52.506;5.470;2023-04-24T10:43:48;2.50;;;0.47;;
78618;SDS011;67941;52.506;5.470;2023-04-24T10:46:31;2.08;;;0.63;;
78618;SDS011;67941;52.506;5.470;2023-04-24T10:49:03;6.30;;;0.60;;
78618;SDS011;67941;52.506;5.470;2023-04-24T10:51:43;0.82;;;0.55;;
78618;SDS011;67941;52.506;5.470;2023-04-24T10:54:36;1.65;;;0.40;;
78618;SDS011;67941;52.506;5.470;2023-04-24T10:57:26;1.88;;;0.32;;
78618;SDS011;67941;52.506;5.470;2023-04-24T11:02:53;2.08;;;1.10;;
78618;SDS011;67941;52.506;5.470;2023-04-24T11:05:22;0.73;;;0.10;;
78618;SDS011;67941;52.506;5.470;2023-04-24T11:08:12;0.90;;;0.20;;
78618;SDS011;67941;52.506;5.470;2023-04-24T11:10:47;0.38;;;0.15;;
78618;SDS011;67941;52.506;5.470;2023-04-24T11:13:24;1.27;;;0.20;;
78618;SDS011;67941;52.506;5.470;2023-04-24T11:18:42;1.05;;;0.30;;
78618;SDS011;67941;52.506;5.470;2023-04-24T11:21:17;3.25;;;0.40;;
78618;SDS011;67941;52.506;5.470;2023-04-24T11:23:46;1.27;;;0.20;;
78618;SDS011;67941;52.506;5.470;2023-04-24T11:26:21;0.57;;;0.17;;
78618;SDS011;67941;52.506;5.470;2023-04-24T11:28:55;1.50;;;0.30;;
78618;SDS011;67941;52.506;5.470;2023-04-24T11:31:37;3.83;;;0.47;;
78618;SDS011;67941;52.506;5.470;2023-04-24T11:34:07;0.77;;;0.20;;
78618;SDS011;67941;52.506;5.470;2023-04-24T11:36:38;2.60;;;0.57;;
78618;SDS011;67941;52.506;5.470;2023-04-24T11:39:07;0.57;;;0.20;;
78618;SDS011;67941;52.506;5.470;2023-04-24T11:41:39;3.00;;;0.30;;
78618;SDS011;67941;52.506;5.470;2023-04-24T11:44:08;0.65;;;0.20;;
78618;SDS011;67941;52.506;5.470;2023-04-24T11:46:37;2.30;;;0.35;;
78618;SDS011;67941;52.506;5.470;2023-04-24T11:49:06;2.08;;;0.30;;
78618;SDS011;67941;52.506;5.470;2023-04-24T11:51:35;1.52;;;0.30;;
78618;SDS011;67941;52.506;5.470;2023-04-24T11:54:07;1.27;;;0.20;;
78618;SDS011;67941;52.506;5.470;2023-04-24T11:56:38;0.50;;;0.22;;
78618;SDS011;67941;52.506;5.470;2023-04-24T11:59:12;1.25;;;0.30;;
78618;SDS011;67941;52.506;5.470;2023-04-24T12:01:44;2.53;;;0.25;;
78618;SDS011;67941;52.506;5.470;2023-04-24T12:04:13;0.43;;;0.20;;
78618;SDS011;67941;52.506;5.470;2023-04-24T12:09:27;1.00;;;0.20;;
78618;SDS011;67941;52.506;5.470;2023-04-24T12:11:58;0.28;;;0.17;;
78618;SDS011;67941;52.506;5.470;2023-04-24T12:14:27;4.18;;;0.38;;
78618;SDS011;67941;52.506;5.470;2023-04-24T12:16:57;2.85;;;0.28;;
78618;SDS011;67941;52.506;5.470;2023-04-24T12:19:26;0.90;;;0.60;;
78618;SDS011;67941;52.506;5.470;2023-04-24T12:22:01;4.18;;;1.73;;
78618;SDS011;67941;52.506;5.470;2023-04-24T12:24:31;3.08;;;0.30;;
78618;SDS011;67941;52.506;5.470;2023-04-24T12:27:03;0.40;;;0.10;;
78618;SDS011;67941;52.506;5.470;2023-04-24T12:29:31;3.55;;;0.30;;
78618;SDS011;67941;52.506;5.470;2023-04-24T12:32:00;2.58;;;0.60;;
78618;SDS011;67941;52.506;5.470;2023-04-24T12:34:31;0.85;;;0.40;;
78618;SDS011;67941;52.506;5.470;2023-04-24T12:37:09;4.88;;;0.40;;
78618;SDS011;67941;52.506;5.470;2023-04-24T12:39:38;3.67;;;1.00;;
78618;SDS011;67941;52.506;5.470;2023-04-24T12:42:09;2.47;;;0.50;;
78618;SDS011;67941;52.506;5.470;2023-04-24T12:44:39;2.70;;;0.40;;
78618;SDS011;67941;52.506;5.470;2023-04-24T12:47:08;5.50;;;0.40;;
78618;SDS011;67941;52.506;5.470;2023-04-24T12:49:37;2.88;;;0.57;;
78618;SDS011;67941;52.506;5.470;2023-04-24T12:52:06;2.83;;;0.50;;
78618;SDS011;67941;52.506;5.470;2023-04-24T12:54:35;0.82;;;0.65;;
78618;SDS011;67941;52.506;5.470;2023-04-24T12:57:03;0.77;;;0.20;;
78618;SDS011;67941;52.506;5.470;2023-04-24T12:59:35;0.90;;;0.38;;
78618;SDS011;67941;52.506;5.470;2023-04-24T13:02:04;3.35;;;0.50;;
78618;SDS011;67941;52.506;5.470;2023-04-24T13:04:34;1.70;;;0.77;;
78618;SDS011;67941;52.506;5.470;2023-04-24T13:07:04;2.85;;;0.63;;
78618;SDS011;67941;52.506;5.470;2023-04-24T13:09:34;3.67;;;0.30;;
78618;SDS011;67941;52.506;5.470;2023-04-24T13:12:03;4.90;;;0.55;;
78618;SDS011;67941;52.506;5.470;2023-04-24T13:14:35;2.20;;;0.30;;
78618;SDS011;67941;52.506;5.470;2023-04-24T13:17:04;2.63;;;0.50;;
78618;SDS011;67941;52.506;5.470;2023-04-24T13:19:37;3.28;;;0.40;;
78618;SDS011;67941;52.506;5.470;2023-04-24T13:22:08;1.48;;;0.30;;
78618;SDS011;67941;52.506;5.470;2023-04-24T13:24:38;2.40;;;0.47;;
78618;SDS011;67941;52.506;5.470;2023-04-24T13:27:07;5.10;;;0.70;;
78618;SDS011;67941;52.506;5.470;2023-04-24T13:29:39;3.50;;;0.68;;
78618;SDS011;67941;52.506;5.470;2023-04-24T13:32:08;5.15;;;0.80;;
78618;SDS011;67941;52.506;5.470;2023-04-24T13:34:37;6.82;;;1.38;;
78618;SDS011;67941;52.506;5.470;2023-04-24T13:37:06;2.72;;;0.55;;
78618;SDS011;67941;52.506;5.470;2023-04-24T13:39:35;3.88;;;0.73;;
78618;SDS011;67941;52.506;5.470;2023-04-24T13:42:04;5.35;;;0.60;;
78618;SDS011;67941;52.506;5.470;2023-04-24T13:44:33;9.93;;;0.95;;
78618;SDS011;67941;52.506;5.470;2023-04-24T13:47:05;5.03;;;0.93;;
78618;SDS011;67941;52.506;5.470;2023-04-24T13:49:34;6.40;;;0.93;;
78618;SDS011;67941;52.506;5.470;2023-04-24T13:52:02;5.75;;;0.90;;
78618;SDS011;67941;52.506;5.470;2023-04-24T13:54:32;5.03;;;0.63;;
78618;SDS011;67941;52.506;5.470;2023-04-24T13:57:01;2.42;;;0.60;;
78618;SDS011;67941;52.506;5.470;2023-04-24T13:59:31;2.88;;;0.95;;
78618;SDS011;67941;52.506;5.470;2023-04-24T14:02:00;6.80;;;0.90;;
78618;SDS011;67941;52.506;5.470;2023-04-24T14:04:31;4.70;;;1.00;;
78618;SDS011;67941;52.506;5.470;2023-04-24T14:07:00;6.45;;;0.88;;
78618;SDS011;67941;52.506;5.470;2023-04-24T14:09:29;6.82;;;1.17;;
78618;SDS011;67941;52.506;5.470;2023-04-24T14:11:58;5.18;;;0.85;;
78618;SDS011;67941;52.506;5.470;2023-04-24T14:14:27;4.05;;;0.60;;
78618;SDS011;67941;52.506;5.470;2023-04-24T14:16:56;7.45;;;1.08;;
78618;SDS011;67941;52.506;5.470;2023-04-24T14:19:25;5.80;;;1.10;;
78618;SDS011;67941;52.506;5.470;2023-04-24T14:21:56;2.53;;;0.50;;
78618;SDS011;67941;52.506;5.470;2023-04-24T14:24:25;5.93;;;1.20;;
78618;SDS011;67941;52.506;5.470;2023-04-24T14:26:54;9.25;;;1.30;;
78618;SDS011;67941;52.506;5.470;2023-04-24T14:29:22;1.67;;;0.52;;
78618;SDS011;67941;52.506;5.470;2023-04-24T14:31:52;5.78;;;0.73;;
78618;SDS011;67941;52.506;5.470;2023-04-24T14:34:20;5.85;;;1.20;;
78618;SDS011;67941;52.506;5.470;2023-04-24T14:36:49;3.83;;;0.73;;
78618;SDS011;67941;52.506;5.470;2023-04-24T14:39:21;5.47;;;0.85;;
78618;SDS011;67941;52.506;5.470;2023-04-24T14:41:49;7.82;;;0.90;;
78618;SDS011;67941;52.506;5.470;2023-04-24T14:44:18;3.28;;;0.80;;
78618;SDS011;67941;52.506;5.470;2023-04-24T14:46:48;5.10;;;1.15;;
78618;SDS011;67941;52.506;5.470;2023-04-24T14:49:17;4.15;;;0.90;;
78618;SDS011;67941;52.506;5.470;2023-04-24T14:51:46;4.15;;;1.13;;
78618;SDS011;67941;52.506;5.470;2023-04-24T14:54:14;9.25;;;1.08;;
78618;SDS011;67941;52.506;5.470;2023-04-24T14:56:46;7.35;;;0.90;;
78618;SDS011;67941;52.506;5.470;2023-04-24T14:59:15;7.95;;;1.30;;
78618;SDS011;67941;52.506;5.470;2023-04-24T15:01:43;4.70;;;0.60;;
78618;SDS011;67941;52.506;5.470;2023-04-24T15:04:12;6.22;;;1.00;;
78618;SDS011;67941;52.506;5.470;2023-04-24T15:06:41;6.13;;;1.20;;
78618;SDS011;67941;52.506;5.470;2023-04-24T15:09:10;2.50;;;1.20;;
78618;SDS011;67941;52.506;5.470;2023-04-24T15:11:39;4.00;;;0.85;;
78618;SDS011;67941;52.506;5.470;2023-04-24T15:14:10;4.45;;;0.73;;
78618;SDS011;67941;52.506;5.470;2023-04-24T15:16:39;3.10;;;0.98;;
78618;SDS011;67941;52.506;5.470;2023-04-24T15:19:08;4.18;;;1.15;;
78618;SDS011;67941;52.506;5.470;2023-04-24T15:21:37;9.27;;;1.52;;
78618;SDS011;67941;52.506;5.470;2023-04-24T15:24:07;5.65;;;0.90;;